Time;durP1;ratioP1;P1;durP2;ratioP2;P2;SDS_P1;SDS_P2;PMS_P1;PMS_P2;Temp;Humidity;BMP_temperature;BMP_pressure;BME280_temperature;BME280_humidity;BME280_pressure;Samples;Min_cycle;Max_cycle;Signal;HPM_P1;HPM_P2
2021/07/12 00:01:18;;;;;;;2.45;1.50;;;;;;;12.93;91.59;99235.03;5105354;28;20253;-66
2021/07/12 00:03:43;;;;;;;2.92;1.60;;;;;;;12.93;92.00;99241.19;5105291;28;20087;-66
2021/07/12 00:06:09;;;;;;;3.38;2.15;;;;;;;13.03;91.82;99234.88;5104113;28;20334;-66
2021/07/12 00:08:34;;;;;;;3.95;1.90;;;;;;;13.00;91.96;99253.41;5101522;28;20062;-66
2021/07/12 00:10:59;;;;;;;4.30;1.42;;;;;;;12.97;91.61;99232.31;5084844;28;20020;-66
2021/07/12 00:13:25;;;;;;;2.50;1.38;;;;;;;12.98;91.13;99233.19;5084818;28;20024;-66
2021/07/12 00:15:50;;;;;;;3.75;1.50;;;;;;;13.02;91.26;99230.50;5083571;28;20095;-66
2021/07/12 00:18:16;;;;;;;2.25;1.70;;;;;;;12.88;91.92;99221.91;5084633;28;20044;-66
2021/07/12 00:20:41;;;;;;;2.45;1.60;;;;;;;12.79;92.04;99216.78;5084692;28;20029;-66
2021/07/12 00:23:07;;;;;;;4.30;1.70;;;;;;;12.75;92.35;99282.91;5084498;28;20316;-66
2021/07/12 00:25:32;;;;;;;1.45;1.20;;;;;;;12.77;92.03;99223.00;5084596;28;20025;-66
2021/07/12 00:27:58;;;;;;;3.28;1.52;;;;;;;12.85;92.36;99219.31;5084609;28;20020;-66
2021/07/12 00:30:24;;;;;;;1.52;1.30;;;;;;;12.87;92.24;99214.00;5084452;28;20028;-66
2021/07/12 00:32:50;;;;;;;2.90;1.60;;;;;;;12.73;91.71;99195.81;5084482;28;20047;-66
2021/07/12 00:35:17;;;;;;;3.95;1.60;;;;;;;12.59;91.96;99192.53;5084426;28;20036;-66
2021/07/12 00:37:43;;;;;;;5.50;1.80;;;;;;;12.62;92.50;99189.84;5095893;28;20024;-66
2021/07/12 00:40:11;;;;;;;3.50;1.83;;;;;;;12.62;92.23;99324.53;5104646;28;20028;-66
2021/07/12 00:42:37;;;;;;;5.13;1.83;;;;;;;12.57;92.91;99315.78;5104552;28;20035;-66
2021/07/12 00:45:08;;;;;;;5.50;2.00;;;;;;;12.64;92.98;99325.38;5104566;28;20083;-66
2021/07/12 00:47:33;;;;;;;4.20;1.95;;;;;;;12.61;92.43;99317.50;5104218;28;20016;-66
2021/07/12 00:49:59;;;;;;;4.65;1.75;;;;;;;12.57;92.74;99283.25;5104039;28;20055;-66
2021/07/12 00:52:24;;;;;;;1.55;1.45;;;;;;;12.50;92.76;99332.63;5103994;28;20036;-66
2021/07/12 00:54:50;;;;;;;4.97;1.83;;;;;;;12.60;92.44;99349.22;5104425;28;20024;-66
2021/07/12 00:57:15;;;;;;;3.10;1.95;;;;;;;12.57;92.63;99350.13;5104338;28;20028;-66
2021/07/12 00:59:41;;;;;;;2.72;1.25;;;;;;;12.56;92.31;99464.59;5104612;28;20073;-66
2021/07/12 01:02:07;;;;;;;3.97;2.00;;;;;;;12.50;92.26;99408.38;5104353;28;20207;-66
2021/07/12 01:04:33;;;;;;;5.25;1.77;;;;;;;12.59;92.33;99431.97;5104289;28;20087;-66
2021/07/12 01:06:59;;;;;;;2.33;2.00;;;;;;;12.63;92.40;99510.28;5085805;28;20040;-66
2021/07/12 01:09:24;;;;;;;3.15;1.95;;;;;;;12.66;91.88;99433.66;5083977;28;20031;-66
2021/07/12 01:12:06;;;;;;;4.35;1.70;;;;;;;12.63;91.56;99437.19;5083953;28;20096;-66
2021/07/12 01:14:47;;;;;;;3.37;1.80;;;;;;;12.53;91.92;99491.03;5082825;28;20324;-66
2021/07/12 01:17:41;;;;;;;5.00;1.90;;;;;;;12.44;92.35;99472.66;5083838;28;20028;-66
2021/07/12 01:20:08;;;;;;;5.97;1.95;;;;;;;12.43;92.71;99502.63;5081725;28;20078;-66
2021/07/12 01:22:45;;;;;;;4.82;1.58;;;;;;;12.51;92.88;99521.91;5083869;28;20127;-66
2021/07/12 01:25:35;;;;;;;2.55;1.85;;;;;;;12.56;92.38;99535.03;5083913;28;20021;-66
2021/07/12 01:28:06;;;;;;;3.72;1.92;;;;;;;12.58;92.04;99549.97;5083844;28;20021;-66
2021/07/12 01:31:02;;;;;;;8.30;2.25;;;;;;;12.54;92.40;99563.22;5083767;28;20029;-66
2021/07/12 01:33:54;;;;;;;4.18;1.85;;;;;;;12.48;92.43;99560.66;5091222;28;20027;-66
2021/07/12 01:36:58;;;;;;;6.47;2.10;;;;;;;12.44;92.61;99546.59;5105912;28;20020;-66
2021/07/12 01:39:29;;;;;;;5.40;1.83;;;;;;;12.46;91.48;99551.88;5096864;28;20227;-66
2021/07/12 01:42:07;;;;;;;2.97;1.90;;;;;;;12.42;91.76;99551.06;5108281;28;20024;-66
2021/07/12 01:44:45;;;;;;;1.70;1.60;;;;;;;12.46;91.82;99560.66;5107984;28;20311;-66
2021/07/12 01:47:45;;;;;;;4.50;1.80;;;;;;;12.48;91.72;99564.19;5108067;28;20024;-66
2021/07/12 01:50:13;;;;;;;1.73;1.38;;;;;;;12.51;91.41;99558.88;5107910;28;20011;-66
2021/07/12 01:52:52;;;;;;;7.07;2.10;;;;;;;12.38;91.91;99567.81;5107724;28;20331;-66
2021/07/12 01:55:22;;;;;;;5.35;1.90;;;;;;;12.33;92.39;99564.34;5107884;28;20212;-66
2021/07/12 01:58:33;;;;;;;5.13;2.25;;;;;;;12.23;92.86;99540.72;5107733;28;20024;-66
2021/07/12 02:00:59;;;;;;;9.40;2.20;;;;;;;12.22;92.83;99587.34;5069352;28;20332;-66
2021/07/12 02:03:28;;;;;;;3.50;2.10;;;;;;;12.30;92.23;99728.06;5087597;28;20211;-66
2021/07/12 02:05:57;;;;;;;3.20;2.17;;;;;;;12.23;92.22;99568.00;5087261;28;20342;-66
2021/07/12 02:08:24;;;;;;;6.82;1.83;;;;;;;12.17;92.08;99631.41;5087211;28;20017;-66
2021/07/12 02:10:51;;;;;;;1.70;1.52;;;;;;;12.26;91.95;99604.03;5087243;28;20024;-66
2021/07/12 02:13:18;;;;;;;5.15;2.25;;;;;;;12.29;91.82;99713.13;5087178;28;20070;-66
2021/07/12 02:15:47;;;;;;;7.45;2.28;;;;;;;12.30;92.34;99614.53;5087079;28;20044;-66
2021/07/12 02:18:14;;;;;;;4.80;1.98;;;;;;;12.40;92.02;99608.28;5086996;28;20033;-66
2021/07/12 02:20:41;;;;;;;3.65;1.95;;;;;;;12.37;91.65;99597.75;5086997;28;20031;-66
2021/07/12 02:23:08;;;;;;;3.63;1.85;;;;;;;12.17;91.25;99655.16;5087075;28;20024;-66
2021/07/12 02:25:34;;;;;;;4.78;1.90;;;;;;;12.12;91.92;99590.97;5088293;28;20020;-66
2021/07/12 02:28:01;;;;;;;3.58;2.10;;;;;;;12.13;91.99;99632.31;5103126;28;20080;-66
2021/07/12 02:30:29;;;;;;;2.40;1.95;;;;;;;12.19;92.17;99608.53;5086810;28;20039;-66
2021/07/12 02:32:55;;;;;;;4.13;1.85;;;;;;;12.18;91.76;99590.91;5086792;28;20219;-66
2021/07/12 02:35:21;;;;;;;3.63;1.90;;;;;;;12.08;92.11;99488.09;5086719;28;20031;-66
2021/07/12 02:37:49;;;;;;;3.50;1.50;;;;;;;12.06;92.63;99490.75;5086582;28;20032;-66
2021/07/12 02:40:17;;;;;;;4.53;1.83;;;;;;;12.04;92.09;99513.66;5086865;28;20330;-66
2021/07/12 02:42:46;;;;;;;3.08;1.80;;;;;;;12.03;92.23;99522.50;5092276;28;20020;-66
2021/07/12 02:45:12;;;;;;;7.68;1.92;;;;;;;12.10;92.11;99545.28;5106841;28;20257;-66
2021/07/12 02:47:39;;;;;;;5.40;1.35;;;;;;;12.07;91.85;99549.69;5106789;28;20328;-66
2021/07/12 02:50:06;;;;;;;1.70;1.42;;;;;;;12.16;91.17;99582.16;5106777;28;20028;-66
2021/07/12 02:53:06;;;;;;;3.03;2.03;;;;;;;11.94;91.23;99595.56;5106505;28;20070;-66
2021/07/12 02:55:32;;;;;;;5.05;1.90;;;;;;;11.84;92.25;99584.25;5106634;28;20024;-66
2021/07/12 02:58:02;;;;;;;2.83;2.17;;;;;;;11.83;92.45;99603.56;5087382;28;20080;-66
2021/07/12 03:00:28;;;;;;;3.55;2.10;;;;;;;11.87;92.62;99615.84;5086503;28;20025;-66
2021/07/12 03:02:54;;;;;;;2.67;1.90;;;;;;;11.87;92.99;99626.38;5086209;28;20039;-66
2021/07/12 03:05:19;;;;;;;4.90;2.25;;;;;;;11.87;92.95;99784.69;5086170;28;20024;-66
2021/07/12 03:07:50;;;;;;;4.07;2.13;;;;;;;11.88;92.89;99654.53;5086134;28;20197;-66
2021/07/12 03:10:17;;;;;;;7.13;2.53;;;;;;;11.92;92.75;99635.16;5086086;28;20025;-66
2021/07/12 03:12:50;;;;;;;5.95;1.92;;;;;;;11.96;92.63;99613.13;5086008;28;20020;-66
2021/07/12 03:15:18;;;;;;;9.02;2.10;;;;;;;11.89;92.00;99738.06;5085986;28;20066;-66
2021/07/12 03:17:52;;;;;;;3.55;1.83;;;;;;;11.86;92.03;99582.44;5088050;28;20028;-66
2021/07/12 03:20:19;;;;;;;3.38;2.17;;;;;;;11.84;92.03;99599.19;5106184;28;20016;-66
2021/07/12 03:22:53;;;;;;;2.63;2.00;;;;;;;11.79;91.98;99599.22;5106141;28;20030;-66
2021/07/12 03:25:27;;;;;;;5.88;1.90;;;;;;;11.83;92.52;99629.94;5093619;28;20031;-66
2021/07/12 03:27:56;;;;;;;6.88;2.15;;;;;;;11.74;92.45;99635.31;5085802;28;20219;-66
2021/07/12 03:30:22;;;;;;;4.60;2.20;;;;;;;11.79;92.49;99649.34;5085637;28;20028;-66
2021/07/12 03:32:49;;;;;;;5.88;1.77;;;;;;;11.69;92.26;99531.63;5085658;28;20028;-66
2021/07/12 03:35:16;;;;;;;6.30;1.85;;;;;;;11.68;92.27;99511.41;5085610;28;20036;-66
2021/07/12 03:37:42;;;;;;;5.20;1.90;;;;;;;11.74;92.28;99540.34;5085476;28;20047;-66
2021/07/12 03:40:09;;;;;;;3.38;1.98;;;;;;;11.88;92.28;99551.66;5085393;28;20335;-66
2021/07/12 03:42:36;;;;;;;8.43;2.20;;;;;;;11.90;91.85;99568.31;5085547;28;20028;-66
2021/07/12 03:45:05;;;;;;;7.78;1.83;;;;;;;11.98;91.73;99606.06;5084163;28;20190;-66
2021/07/12 03:47:32;;;;;;;5.97;2.20;;;;;;;12.01;91.56;99745.91;5091507;28;20065;-66
2021/07/12 03:50:17;;;;;;;3.15;1.70;;;;;;;12.15;91.63;99612.06;5104679;28;20078;-66
2021/07/12 03:52:48;;;;;;;1.95;1.70;;;;;;;12.21;91.26;99617.28;5098392;28;20032;-66
2021/07/12 03:55:16;;;;;;;2.88;1.50;;;;;;;12.21;91.55;99637.53;5084301;28;20096;-66
2021/07/12 03:57:42;;;;;;;3.10;1.92;;;;;;;12.24;91.36;99627.81;5083720;28;20086;-66
2021/07/12 04:00:11;;;;;;;3.13;2.10;;;;;;;12.27;91.00;99584.66;5083702;28;20020;-66
2021/07/12 04:02:37;;;;;;;3.42;1.70;;;;;;;12.21;91.53;99585.59;5084094;28;20020;-66
2021/07/12 04:05:04;;;;;;;8.20;1.80;;;;;;;12.27;91.31;99692.88;5084024;28;20189;-66
2021/07/12 04:07:30;;;;;;;3.08;2.10;;;;;;;12.26;91.45;99609.31;5099568;28;20059;-66
2021/07/12 04:09:55;;;;;;;5.85;1.75;;;;;;;12.41;91.42;99699.78;5083951;28;20028;-66
2021/07/12 04:12:23;;;;;;;2.97;1.50;;;;;;;12.53;90.79;99619.59;5097866;28;20055;-66
2021/07/12 04:14:53;;;;;;;4.90;1.83;;;;;;;12.48;90.50;99669.81;5104937;28;20061;-66
2021/07/12 04:17:20;;;;;;;3.15;1.70;;;;;;;12.59;90.61;99696.97;5086243;28;20096;-66
2021/07/12 04:19:46;;;;;;;3.17;1.85;;;;;;;12.62;91.28;99794.66;5084707;28;20088;-66
2021/07/12 04:22:11;;;;;;;3.72;1.95;;;;;;;12.67;91.22;99570.97;5084672;28;20274;-66
2021/07/12 04:24:37;;;;;;;4.68;1.83;;;;;;;12.64;90.50;99481.22;5084598;28;20040;-66
2021/07/12 04:27:03;;;;;;;4.93;1.90;;;;;;;12.81;90.57;99447.50;5084552;28;20024;-66
2021/07/12 04:29:29;;;;;;;2.75;1.73;;;;;;;12.87;90.82;99406.88;5084559;28;20083;-66
2021/07/12 04:31:56;;;;;;;2.58;1.83;;;;;;;12.95;90.28;99363.56;5084494;28;20262;-66
2021/07/12 04:34:22;;;;;;;5.53;1.50;;;;;;;12.98;90.40;99360.88;5084457;28;20024;-66
2021/07/12 04:36:48;;;;;;;5.78;1.70;;;;;;;13.00;90.36;99343.28;5084373;28;20334;-66
2021/07/12 04:39:14;;;;;;;3.03;1.67;;;;;;;13.00;90.58;99332.69;5084344;28;20040;-67
2021/07/12 04:41:39;;;;;;;6.15;1.92;;;;;;;13.15;91.25;99347.41;5084305;28;20025;-67
2021/07/12 04:44:05;;;;;;;6.18;2.03;;;;;;;13.33;90.05;99341.78;5084289;28;20324;-67
2021/07/12 04:46:30;;;;;;;2.60;1.70;;;;;;;13.64;89.40;99620.66;5084292;28;20212;-67
2021/07/12 04:48:56;;;;;;;7.10;1.80;;;;;;;13.68;88.66;99356.94;5084237;28;20020;-67
2021/07/12 04:51:21;;;;;;;4.10;1.60;;;;;;;13.64;89.23;99331.47;5084045;28;20359;-67
2021/07/12 04:53:46;;;;;;;3.97;2.03;;;;;;;13.56;89.74;99312.22;5084237;28;20024;-67
2021/07/12 04:56:12;;;;;;;4.40;1.63;;;;;;;13.59;89.70;99306.88;5084204;28;20070;-67
2021/07/12 04:58:44;;;;;;;3.13;1.90;;;;;;;13.56;89.47;99307.81;5084053;28;20028;-67
2021/07/12 05:01:09;;;;;;;3.55;1.55;;;;;;;13.66;90.19;99313.78;5084422;28;20240;-67
2021/07/12 05:03:34;;;;;;;3.72;1.83;;;;;;;13.69;89.90;99300.47;5082954;28;20027;-66
2021/07/12 05:06:00;;;;;;;6.85;1.70;;;;;;;13.74;89.57;99290.69;5084039;28;20024;-66
2021/07/12 05:08:25;;;;;;;3.70;1.88;;;;;;;13.77;89.74;99303.84;5084035;28;20096;-66
2021/07/12 05:10:51;;;;;;;3.75;1.92;;;;;;;13.89;89.92;99328.25;5083172;28;20027;-66
2021/07/12 05:13:17;;;;;;;7.10;2.10;;;;;;;13.90;90.60;99323.84;5084028;28;20246;-66
2021/07/12 05:15:43;;;;;;;4.57;1.92;;;;;;;14.04;90.29;99327.06;5083924;28;20021;-66
2021/07/12 05:18:08;;;;;;;3.00;1.83;;;;;;;14.14;90.27;99333.91;5083827;28;20016;-66
2021/07/12 05:20:34;;;;;;;7.30;2.40;;;;;;;14.21;88.73;99314.34;5083909;28;20319;-66
2021/07/12 05:23:00;;;;;;;6.97;1.95;;;;;;;14.43;88.82;99320.91;5083864;28;20066;-66
2021/07/12 05:25:28;;;;;;;4.70;2.10;;;;;;;14.66;88.26;99323.84;5083852;28;20048;-66
2021/07/12 05:27:54;;;;;;;4.22;1.85;;;;;;;14.98;88.01;99315.94;5083835;28;20330;-66
2021/07/12 05:30:19;;;;;;;2.85;1.98;;;;;;;15.55;87.23;99298.50;5083827;28;20017;-66
2021/07/12 05:32:45;;;;;;;7.72;2.00;;;;;;;16.07;85.52;99258.81;5083803;28;20080;-66
2021/07/12 05:35:11;;;;;;;3.40;1.75;;;;;;;16.34;84.49;99233.19;5083764;28;20032;-66
2021/07/12 05:37:37;;;;;;;5.47;2.00;;;;;;;16.09;85.36;99222.47;5083738;28;20032;-66
2021/07/12 05:40:04;;;;;;;1.83;1.50;;;;;;;16.06;85.09;99222.59;5083729;28;20020;-66
2021/07/12 05:42:30;;;;;;;2.55;1.80;;;;;;;16.04;85.32;99244.81;5083595;28;20016;-66
2021/07/12 05:44:55;;;;;;;7.22;1.75;;;;;;;16.42;84.90;99247.94;5083653;28;20422;-66
2021/07/12 05:47:20;;;;;;;3.05;1.52;;;;;;;16.51;84.32;99258.31;5083658;28;20383;-66
2021/07/12 05:49:46;;;;;;;8.07;2.00;;;;;;;16.92;83.79;99265.75;5083571;28;20028;-66
2021/07/12 05:52:12;;;;;;;3.85;1.50;;;;;;;17.31;84.23;99274.13;5083457;28;20135;-66
2021/07/12 05:54:37;;;;;;;5.45;2.08;;;;;;;17.91;82.67;99302.94;5083582;28;20032;-66
2021/07/12 05:57:03;;;;;;;9.80;2.10;;;;;;;18.04;80.42;99283.78;5083545;28;20341;-66
2021/07/12 05:59:28;;;;;;;6.07;2.58;;;;;;;18.05;81.38;100952.72;5083437;28;20025;-66
2021/07/12 06:01:54;;;;;;;4.13;1.80;;;;;;;18.28;81.06;101409.25;5083485;28;20142;-66
2021/07/12 06:04:19;;;;;;;8.35;2.25;;;;;;;18.44;80.13;100544.19;5083453;28;20028;-66
2021/07/12 06:06:45;;;;;;;4.85;1.90;;;;;;;18.36;81.66;100351.47;5083481;28;20032;-66
2021/07/12 06:09:10;;;;;;;9.82;2.28;;;;;;;18.10;81.17;100232.13;5083431;28;20071;-66
2021/07/12 06:11:36;;;;;;;3.72;1.90;;;;;;;18.34;82.70;100124.00;5083385;28;20025;-66
2021/07/12 06:14:01;;;;;;;7.35;2.50;;;;;;;18.22;83.16;100071.06;5083387;28;20103;-66
2021/07/12 06:16:27;;;;;;;4.22;2.00;;;;;;;18.10;83.22;99980.78;5083370;28;20029;-66
2021/07/12 06:18:52;;;;;;;8.23;2.35;;;;;;;18.14;82.84;99956.66;5083276;28;20035;-66
2021/07/12 06:21:18;;;;;;;3.88;2.22;;;;;;;18.20;82.82;99886.31;5083601;28;20082;-66
2021/07/12 06:23:43;;;;;;;2.53;2.10;;;;;;;18.52;81.83;99824.91;5086964;28;20095;-66
2021/07/12 06:26:09;;;;;;;4.93;2.25;;;;;;;18.78;81.19;99768.88;5086891;28;20373;-66
2021/07/12 06:28:34;;;;;;;2.67;2.20;;;;;;;18.89;81.05;99716.03;5086862;28;20028;-66
2021/07/12 06:30:59;;;;;;;5.60;2.25;;;;;;;18.93;80.19;99707.00;5086836;28;20081;-66
2021/07/12 06:33:27;;;;;;;3.45;2.05;;;;;;;19.08;78.78;99682.44;5086764;28;20016;-66
2021/07/12 06:35:53;;;;;;;2.60;1.85;;;;;;;19.14;79.52;99656.38;5086991;28;20201;-66
2021/07/12 06:38:19;;;;;;;4.03;2.00;;;;;;;19.22;79.65;99637.41;5086627;28;20103;-66
2021/07/12 06:40:44;;;;;;;4.47;2.33;;;;;;;19.23;81.28;99607.09;5086638;28;20028;-66
2021/07/12 06:43:09;;;;;;;9.15;2.30;;;;;;;19.08;80.34;99543.66;5086562;28;20020;-66
2021/07/12 06:45:36;;;;;;;2.80;1.67;;;;;;;19.02;79.53;99373.13;5085426;28;20017;-66
2021/07/12 06:48:01;;;;;;;2.55;1.92;;;;;;;19.01;79.86;99334.00;5086512;28;20070;-66
2021/07/12 06:50:27;;;;;;;4.03;2.50;;;;;;;18.95;80.32;99313.78;5086487;28;20315;-66
2021/07/12 06:52:52;;;;;;;3.65;2.00;;;;;;;18.90;79.75;99234.91;5086310;28;20335;-66
2021/07/12 06:55:18;;;;;;;2.80;2.00;;;;;;;18.99;78.83;99207.81;5086400;28;20021;-66
2021/07/12 06:57:43;;;;;;;3.63;1.77;;;;;;;19.09;79.22;99225.16;5086269;28;20021;-66
2021/07/12 07:00:09;;;;;;;3.28;2.13;;;;;;;19.05;79.41;99215.56;5086317;28;20020;-66
2021/07/12 07:02:38;;;;;;;5.20;2.28;;;;;;;19.02;78.96;99210.34;5086314;28;20083;-66
2021/07/12 07:05:05;;;;;;;2.85;1.80;;;;;;;19.08;78.57;99200.25;5086161;28;20065;-66
2021/07/12 07:07:30;;;;;;;2.97;1.85;;;;;;;19.19;79.04;99298.53;5086188;28;20020;-66
2021/07/12 07:09:56;;;;;;;2.72;2.05;;;;;;;19.07;79.05;99264.38;5086145;28;20020;-66
2021/07/12 07:12:21;;;;;;;2.58;2.00;;;;;;;19.08;78.85;99245.63;5086361;28;20023;-66
2021/07/12 07:14:47;;;;;;;4.47;1.90;;;;;;;19.09;78.38;99209.16;5086042;28;20025;-66
2021/07/12 07:17:12;;;;;;;6.82;2.10;;;;;;;19.27;78.41;99162.13;5085994;28;20055;-66
2021/07/12 07:19:37;;;;;;;6.32;1.92;;;;;;;19.42;80.02;99154.25;5084723;28;20020;-66
2021/07/12 07:22:03;;;;;;;4.78;2.00;;;;;;;19.40;77.60;99100.09;5085907;28;20105;-66
2021/07/12 07:24:28;;;;;;;4.05;1.67;;;;;;;19.51;78.18;99078.19;5085848;28;20276;-66
2021/07/12 07:26:54;;;;;;;4.28;2.10;;;;;;;19.54;75.85;99068.25;5085794;28;20204;-66
2021/07/12 07:29:21;;;;;;;3.90;1.90;;;;;;;19.75;76.00;99060.97;5085729;28;20024;-66
2021/07/12 07:31:47;;;;;;;8.27;2.95;;;;;;;19.60;76.99;99051.03;5085715;28;20021;-66
2021/07/12 07:34:14;;;;;;;2.53;1.70;;;;;;;19.74;76.17;99044.06;5084802;28;20016;-66
2021/07/12 07:36:40;;;;;;;6.10;2.25;;;;;;;19.88;76.99;99022.91;5085615;28;20013;-66
2021/07/12 07:39:07;;;;;;;2.60;1.80;;;;;;;19.90;75.18;99002.28;5085718;28;20021;-66
2021/07/12 07:41:36;;;;;;;4.10;1.80;;;;;;;19.95;75.24;99002.94;5085445;28;20091;-66
2021/07/12 07:44:02;;;;;;;5.22;2.10;;;;;;;20.09;75.77;98984.38;5085456;28;20021;-66
2021/07/12 07:46:27;;;;;;;9.57;2.00;;;;;;;20.24;74.27;98980.94;5085386;28;20021;-66
2021/07/12 07:48:53;;;;;;;4.03;2.00;;;;;;;20.32;74.29;98946.66;5084226;28;20189;-66
2021/07/12 07:51:18;;;;;;;2.45;1.60;;;;;;;20.65;74.97;98942.16;5085069;28;20051;-66
2021/07/12 07:53:43;;;;;;;3.40;1.67;;;;;;;20.57;73.37;98920.28;5085265;28;20025;-66
2021/07/12 07:56:09;;;;;;;2.80;1.83;;;;;;;20.94;71.95;98924.50;5085174;28;20031;-66
2021/07/12 07:58:35;;;;;;;3.00;1.70;;;;;;;20.99;71.82;98911.72;5085082;28;20032;-66
2021/07/12 08:01:00;;;;;;;4.93;1.90;;;;;;;21.06;71.21;98889.88;5085076;28;20048;-66
2021/07/12 08:03:26;;;;;;;2.53;1.55;;;;;;;20.96;71.47;98928.84;5085086;28;20017;-66
2021/07/12 08:05:52;;;;;;;5.50;2.05;;;;;;;20.89;72.06;99494.72;5084984;28;20319;-66
2021/07/12 08:08:17;;;;;;;3.67;1.92;;;;;;;20.80;71.89;99141.97;5084931;28;20016;-66
2021/07/12 08:10:43;;;;;;;3.35;1.80;;;;;;;20.54;70.99;99086.28;5084899;28;20088;-66
2021/07/12 08:13:09;;;;;;;2.15;1.85;;;;;;;20.72;72.26;99176.28;5084882;28;20038;-66
2021/07/12 08:15:37;;;;;;;3.33;1.80;;;;;;;20.61;71.52;99119.81;5084802;28;20016;-66
2021/07/12 08:18:03;;;;;;;2.33;1.40;;;;;;;20.50;72.29;99063.31;5084676;28;20030;-66
2021/07/12 08:20:29;;;;;;;4.50;1.88;;;;;;;20.38;71.17;98908.88;5084986;28;20331;-66
2021/07/12 08:22:54;;;;;;;3.10;1.75;;;;;;;20.46;71.41;98885.25;5084665;28;20024;-66
2021/07/12 08:25:21;;;;;;;4.75;1.75;;;;;;;20.31;71.24;98864.72;5084667;28;20024;-66
2021/07/12 08:27:48;;;;;;;4.05;1.75;;;;;;;20.15;71.24;98837.09;5084564;28;20024;-66
2021/07/12 08:30:15;;;;;;;4.45;2.28;;;;;;;20.29;71.88;98831.88;5084540;28;20167;-66
2021/07/12 08:32:41;;;;;;;3.47;1.90;;;;;;;20.20;72.59;98808.31;5084499;28;20039;-66
2021/07/12 08:35:08;;;;;;;6.43;1.75;;;;;;;20.19;73.05;98787.84;5084470;28;20024;-66
2021/07/12 08:37:33;;;;;;;3.15;1.60;;;;;;;20.25;72.66;98784.00;5084310;28;20028;-66
2021/07/12 08:39:59;;;;;;;2.42;1.40;;;;;;;20.41;71.74;98791.06;5084402;28;20031;-66
2021/07/12 08:42:26;;;;;;;3.05;1.52;;;;;;;20.46;70.24;98815.75;5084292;28;20027;-66
2021/07/12 08:44:51;;;;;;;4.30;1.52;;;;;;;20.71;70.31;98844.63;5084275;28;20031;-66
2021/07/12 08:47:17;;;;;;;2.67;1.20;;;;;;;20.72;72.21;98870.44;5084270;28;20024;-66
2021/07/12 08:49:42;;;;;;;3.25;1.38;;;;;;;20.80;71.53;98871.75;5084245;28;20020;-66
2021/07/12 08:52:08;;;;;;;4.15;1.50;;;;;;;20.75;71.63;98873.81;5084094;28;20146;-66
2021/07/12 08:54:34;;;;;;;2.58;1.40;;;;;;;20.68;69.85;98872.44;5084220;28;20025;-66
2021/07/12 08:57:00;;;;;;;2.78;1.50;;;;;;;20.66;71.88;98847.56;5084473;28;20066;-66
2021/07/12 08:59:29;;;;;;;3.92;1.73;;;;;;;20.62;72.88;98853.19;5084050;28;20323;-66
2021/07/12 09:02:00;;;;;;;3.47;1.88;;;;;;;20.66;74.66;98849.41;5084103;28;20028;-66
2021/07/12 09:04:27;;;;;;;4.00;1.70;;;;;;;20.75;72.74;98844.38;5084096;28;20076;-66
2021/07/12 09:07:03;;;;;;;1.63;1.50;;;;;;;20.83;69.52;98842.16;5084092;28;20028;-66
2021/07/12 09:09:29;;;;;;;2.80;1.70;;;;;;;20.78;70.26;98820.13;5084068;28;20023;-66
2021/07/12 09:11:54;;;;;;;6.63;1.50;;;;;;;20.80;70.59;98804.88;5084043;28;20020;-66
2021/07/12 09:14:20;;;;;;;8.38;2.55;;;;;;;20.89;71.13;98801.63;5084235;28;20024;-66
2021/07/12 09:16:54;;;;;;;5.60;2.13;;;;;;;20.90;71.41;98795.34;5083975;28;20066;-66
2021/07/12 09:19:32;;;;;;;4.00;1.63;;;;;;;20.96;69.20;99033.22;5083888;28;20092;-66
2021/07/12 09:22:01;;;;;;;4.28;1.90;;;;;;;20.87;69.42;98843.69;5084223;28;20086;-66
2021/07/12 09:24:30;;;;;;;5.18;1.60;;;;;;;20.84;71.06;98811.75;5083881;28;20300;-66
2021/07/12 09:27:09;;;;;;;3.08;1.80;;;;;;;20.86;70.96;98806.31;5083830;28;20062;-66
2021/07/12 09:29:44;;;;;;;1.95;1.70;;;;;;;20.94;70.71;98770.16;5084429;28;20078;-66
2021/07/12 09:32:18;;;;;;;6.35;1.88;;;;;;;20.83;72.42;98772.59;5084149;28;20025;-66
2021/07/12 09:34:48;;;;;;;4.65;1.63;;;;;;;21.02;70.42;98757.19;5084067;28;20035;-66
2021/07/12 09:37:17;;;;;;;4.25;1.80;;;;;;;21.11;70.71;98753.94;5083752;28;20040;-66
2021/07/12 09:39:51;;;;;;;1.77;1.50;;;;;;;21.28;68.40;98740.44;5083665;28;20338;-67
2021/07/12 09:42:19;;;;;;;2.42;1.70;;;;;;;21.49;68.27;98734.72;5083665;28;20027;-67
2021/07/12 09:44:47;;;;;;;2.20;1.48;;;;;;;21.96;67.58;98738.84;5083680;28;20028;-67
2021/07/12 09:47:16;;;;;;;2.60;1.42;;;;;;;22.19;67.97;98737.38;5083669;28;20215;-67
2021/07/12 09:49:42;;;;;;;1.88;1.48;;;;;;;22.40;66.28;98760.16;5083637;28;20013;-67
2021/07/12 09:52:11;;;;;;;2.00;1.50;;;;;;;22.40;65.69;98727.97;5083429;28;20044;-67
2021/07/12 09:54:38;;;;;;;3.45;1.70;;;;;;;22.40;63.68;98725.28;5083815;28;20016;-67
2021/07/12 09:57:08;;;;;;;2.47;1.65;;;;;;;22.45;64.97;98712.41;5085065;28;20027;-67
2021/07/12 09:59:34;;;;;;;5.65;1.60;;;;;;;22.49;65.91;98714.84;5087397;28;20021;-67
2021/07/12 10:02:01;;;;;;;3.13;1.35;;;;;;;22.38;65.28;98883.63;5087399;28;20031;-67
2021/07/12 10:04:28;;;;;;;3.13;1.77;;;;;;;22.24;64.76;98795.13;5087368;28;20030;-67
2021/07/12 10:06:54;;;;;;;5.93;2.92;;;;;;;22.21;64.99;98794.47;5087298;28;20330;-67
2021/07/12 10:09:22;;;;;;;5.47;2.50;;;;;;;22.15;65.02;98794.84;5087276;28;20079;-67
2021/07/12 10:11:49;;;;;;;6.50;2.47;;;;;;;22.16;64.47;98786.72;5087476;28;20021;-67
2021/07/12 10:14:14;;;;;;;3.00;1.67;;;;;;;22.10;64.48;98791.59;5087142;28;20044;-67
2021/07/12 10:16:40;;;;;;;6.10;1.77;;;;;;;22.05;64.37;98781.16;5087143;28;20181;-67
2021/07/12 10:19:06;;;;;;;2.53;1.77;;;;;;;21.96;65.59;98778.22;5086987;28;20024;-67
2021/07/12 10:21:36;;;;;;;2.17;1.50;;;;;;;22.15;63.59;98768.88;5087030;28;20027;-67
2021/07/12 10:24:02;;;;;;;3.28;1.92;;;;;;;22.04;66.43;98738.38;5086979;28;20043;-67
2021/07/12 10:27:06;;;;;;;3.85;1.67;;;;;;;22.27;65.42;98745.81;5086931;28;20020;-67
2021/07/12 10:29:37;;;;;;;1.98;1.50;;;;;;;22.45;65.30;99179.19;5086955;28;20022;-67
2021/07/12 10:32:09;;;;;;;1.73;1.58;;;;;;;22.37;65.86;98913.22;5086817;28;20028;-67
2021/07/12 10:34:41;;;;;;;3.35;1.50;;;;;;;22.64;64.59;98890.03;5086870;28;20020;-67
2021/07/12 10:37:16;;;;;;;2.67;1.60;;;;;;;22.91;64.59;98878.38;5086717;28;20043;-67
2021/07/12 10:40:10;;;;;;;2.88;1.45;;;;;;;23.33;63.44;98882.81;5086647;28;20025;-67
2021/07/12 10:42:41;;;;;;;2.10;1.77;;;;;;;23.63;62.92;98871.81;5086631;28;20074;-67
2021/07/12 10:45:13;;;;;;;1.63;1.45;;;;;;;23.76;62.47;98857.41;5086650;28;20017;-67
2021/07/12 10:47:50;;;;;;;1.38;1.27;;;;;;;23.47;63.76;98822.78;5086588;28;20088;-67
2021/07/12 10:50:52;;;;;;;2.45;1.58;;;;;;;23.33;65.03;98761.91;5086522;28;20327;-67
2021/07/12 10:53:23;;;;;;;3.10;1.80;;;;;;;23.28;64.16;98745.25;5064783;28;20111;-67
2021/07/12 10:55:57;;;;;;;3.03;1.60;;;;;;;23.19;63.70;98748.53;5064728;28;20477;-67
2021/07/12 10:58:29;;;;;;;1.58;1.48;;;;;;;22.79;63.32;98733.41;5064659;28;20021;-67
2021/07/12 11:00:57;;;;;;;2.40;1.80;;;;;;;22.76;64.33;98707.66;5064535;28;20032;-67
2021/07/12 11:03:35;;;;;;;2.72;1.80;;;;;;;22.60;63.65;99073.66;5064614;28;20324;-67
2021/07/12 11:06:01;;;;;;;1.90;1.50;;;;;;;22.58;65.08;98826.03;5064559;28;20024;-67
2021/07/12 11:09:00;;;;;;;2.45;1.70;;;;;;;22.67;64.62;98799.50;5063163;28;20045;-67
2021/07/12 11:11:25;;;;;;;4.53;1.63;;;;;;;22.73;64.84;98787.47;5042722;28;20037;-67
2021/07/12 11:14:05;;;;;;;2.85;1.70;;;;;;;22.81;65.28;98802.13;5064378;28;20037;-67
2021/07/12 11:16:40;;;;;;;3.03;1.67;;;;;;;22.79;66.10;98771.84;5064332;28;20312;-67
2021/07/12 11:19:31;;;;;;;6.25;1.75;;;;;;;22.83;66.45;98767.13;5064154;28;20060;-67
2021/07/12 11:22:14;;;;;;;1.90;1.55;;;;;;;22.84;65.69;98750.03;5064225;28;20357;-67
2021/07/12 11:25:01;;;;;;;4.63;2.10;;;;;;;22.82;65.27;98735.88;5064169;28;20293;-67
2021/07/12 11:27:37;;;;;;;4.43;1.80;;;;;;;22.91;65.30;98728.06;5076900;28;20032;-67
2021/07/12 11:30:35;;;;;;;2.65;1.80;;;;;;;23.08;65.54;98708.13;5085779;28;20032;-67
2021/07/12 11:33:00;;;;;;;4.32;1.80;;;;;;;23.06;66.30;98693.94;5073761;28;20059;-67
2021/07/12 11:35:26;;;;;;;5.20;1.55;;;;;;;22.81;66.43;98651.81;5085674;28;20062;-67
2021/07/12 11:37:57;;;;;;;2.97;1.90;;;;;;;22.62;66.28;98583.44;5085562;28;20025;-67
2021/07/12 11:40:22;;;;;;;3.58;1.48;;;;;;;22.64;68.49;98530.50;5085688;28;20250;-67
2021/07/12 11:42:48;;;;;;;2.53;1.73;;;;;;;22.33;70.71;98488.81;5085467;28;20024;-67